createdAt,value
2023-05-10T00:01:55.726Z,20.51
2023-05-10T00:04:23.412Z,20.65
2023-05-10T00:06:50.322Z,20.65
2023-05-10T00:09:17.590Z,20.67
2023-05-10T00:11:44.505Z,20.67
2023-05-10T00:14:13.024Z,20.50
2023-05-10T00:16:40.566Z,20.45
2023-05-10T00:19:07.926Z,20.50
2023-05-10T00:21:34.854Z,20.54
2023-05-10T00:24:02.148Z,20.50
2023-05-10T00:26:29.109Z,20.39
2023-05-10T00:28:57.388Z,20.37
2023-05-10T00:31:25.822Z,20.34
2023-05-10T00:33:52.894Z,20.27
2023-05-10T00:36:19.793Z,20.26
2023-05-10T00:38:46.669Z,20.27
2023-05-10T00:41:13.645Z,20.34
2023-05-10T00:43:41.547Z,20.26
2023-05-10T00:46:09.027Z,20.26
2023-05-10T00:48:37.640Z,20.23
2023-05-10T00:51:05.112Z,20.24
2023-05-10T00:53:33.232Z,20.19
2023-05-10T00:56:00.691Z,20.13
2023-05-10T00:58:28.435Z,20.14
2023-05-10T01:00:56.432Z,20.20
2023-05-10T01:03:23.424Z,20.09
2023-05-10T01:05:52.137Z,20.12
2023-05-10T01:08:19.732Z,20.16
2023-05-10T01:10:47.279Z,20.13
2023-05-10T01:13:33.937Z,20.20
2023-05-10T01:16:01.703Z,20.10
2023-05-10T01:18:32.299Z,20.17
2023-05-10T01:21:18.484Z,20.26
2023-05-10T01:24:15.964Z,20.24
2023-05-10T01:27:18.241Z,20.19
2023-05-10T01:30:56.189Z,20.21
2023-05-10T01:33:31.593Z,20.12
2023-05-10T01:36:09.439Z,20.16
2023-05-10T01:38:43.850Z,20.14
2023-05-10T01:41:19.684Z,20.10
2023-05-10T01:43:57.824Z,20.08
2023-05-10T01:46:35.941Z,19.94
2023-05-10T01:49:11.908Z,20.00
2023-05-10T01:51:48.152Z,20.05
2023-05-10T01:54:20.369Z,20.03
2023-05-10T01:56:51.229Z,19.82
2023-05-10T01:59:21.080Z,19.80
2023-05-10T02:01:50.859Z,19.86
2023-05-10T02:04:24.791Z,19.80
2023-05-10T02:06:54.929Z,19.83
2023-05-10T02:09:24.418Z,19.86
2023-05-10T02:11:51.876Z,19.87
2023-05-10T02:14:21.525Z,19.92
2023-05-10T02:16:51.682Z,19.92
2023-05-10T02:19:21.506Z,19.93
2023-05-10T02:21:49.940Z,19.94
2023-05-10T02:24:18.108Z,19.89
2023-05-10T02:26:48.313Z,19.80
2023-05-10T02:29:17.840Z,19.80
2023-05-10T02:31:46.495Z,19.80
2023-05-10T02:34:15.395Z,19.78
2023-05-10T02:36:44.762Z,19.79
2023-05-10T02:39:15.341Z,19.66
2023-05-10T02:41:44.631Z,19.62
2023-05-10T02:44:15.220Z,19.65
2023-05-10T02:46:42.454Z,19.59
2023-05-10T02:49:11.288Z,19.63
2023-05-10T02:51:49.872Z,19.66
2023-05-10T02:54:23.475Z,19.58
2023-05-10T02:56:57.316Z,19.52
2023-05-10T02:59:24.837Z,19.47
2023-05-10T03:01:51.715Z,19.51
2023-05-10T03:04:18.885Z,19.54
2023-05-10T03:06:47.407Z,19.49
2023-05-10T03:09:14.840Z,19.48
2023-05-10T03:11:57.710Z,19.57
2023-05-10T03:14:46.379Z,19.61
2023-05-10T03:17:26.556Z,19.49
2023-05-10T03:19:57.445Z,19.49
2023-05-10T03:22:32.022Z,19.55
2023-05-10T03:25:05.574Z,19.54
2023-05-10T03:27:34.874Z,19.54
2023-05-10T03:30:04.692Z,19.47
2023-05-10T03:32:34.184Z,19.45
2023-05-10T03:35:01.979Z,19.49
2023-05-10T03:37:30.600Z,19.45
2023-05-10T03:39:57.844Z,19.51
2023-05-10T03:42:25.579Z,19.45
2023-05-10T03:44:52.470Z,19.51
2023-05-10T03:47:19.678Z,19.55
2023-05-10T03:49:47.146Z,19.58
2023-05-10T03:52:14.231Z,19.49
2023-05-10T03:54:45.045Z,19.57
2023-05-10T03:57:14.496Z,19.52
2023-05-10T03:59:41.778Z,19.47
2023-05-10T04:02:08.843Z,19.48
2023-05-10T04:04:36.955Z,19.45
2023-05-10T04:07:04.518Z,19.45
2023-05-10T04:09:31.789Z,19.54
2023-05-10T04:12:01.270Z,19.65
2023-05-10T04:14:28.080Z,19.70
2023-05-10T04:16:55.323Z,19.78
2023-05-10T04:19:22.212Z,19.79
2023-05-10T04:21:49.372Z,19.75
2023-05-10T04:24:16.518Z,19.76
2023-05-10T04:26:43.548Z,19.80
2023-05-10T04:29:17.849Z,19.85
2023-05-10T04:31:45.687Z,19.76
2023-05-10T04:34:12.793Z,19.75
2023-05-10T04:36:39.874Z,19.58
2023-05-10T04:39:07.097Z,19.66
2023-05-10T04:41:33.992Z,19.75
2023-05-10T04:44:00.884Z,19.73
2023-05-10T04:46:29.220Z,19.73
2023-05-10T04:48:56.120Z,19.70
2023-05-10T04:51:23.039Z,19.70
2023-05-10T04:54:01.698Z,19.72
2023-05-10T04:56:34.496Z,19.65
2023-05-10T04:59:02.047Z,19.69
2023-05-10T05:01:30.554Z,19.75
2023-05-10T05:03:57.825Z,19.75
2023-05-10T05:06:24.967Z,19.79
2023-05-10T05:08:53.574Z,19.66
2023-05-10T05:11:22.287Z,19.70
2023-05-10T05:13:49.865Z,19.76
2023-05-10T05:16:18.861Z,19.86
2023-05-10T05:18:48.651Z,19.79
2023-05-10T05:21:16.052Z,19.87
2023-05-10T05:23:43.430Z,19.89
2023-05-10T05:26:10.776Z,19.80
2023-05-10T05:28:38.464Z,19.73
2023-05-10T05:31:05.844Z,19.82
2023-05-10T05:33:33.384Z,19.82
2023-05-10T05:36:04.401Z,19.86
2023-05-10T05:38:31.477Z,19.89
2023-05-10T05:40:59.452Z,20.00
2023-05-10T05:43:26.487Z,20.12
2023-05-10T05:45:54.357Z,20.29
2023-05-10T05:48:21.567Z,20.37
2023-05-10T05:50:48.736Z,20.34
2023-05-10T05:53:17.003Z,20.31
2023-05-10T05:55:53.008Z,20.45
2023-05-10T05:58:20.282Z,20.54
2023-05-10T06:00:47.095Z,20.61
2023-05-10T06:03:14.200Z,20.64
2023-05-10T06:05:41.810Z,20.71
2023-05-10T06:08:09.347Z,20.77
2023-05-10T06:10:39.887Z,20.70
2023-05-10T06:13:07.090Z,20.68
2023-05-10T06:15:34.236Z,20.65
2023-05-10T06:18:01.300Z,20.77
2023-05-10T06:20:28.473Z,20.74
2023-05-10T06:22:55.680Z,20.77
2023-05-10T06:25:22.587Z,20.94
2023-05-10T06:27:53.447Z,21.06
2023-05-10T06:30:46.609Z,21.18
2023-05-10T06:33:13.837Z,21.33
2023-05-10T06:35:40.812Z,21.29
2023-05-10T06:38:07.839Z,21.46
2023-05-10T06:40:34.953Z,21.66
2023-05-10T06:43:03.216Z,21.87
2023-05-10T06:45:30.530Z,21.98
2023-05-10T06:47:57.570Z,22.15
2023-05-10T06:50:24.553Z,22.17
2023-05-10T06:52:53.083Z,22.10
2023-05-10T06:55:20.731Z,22.22
2023-05-10T06:57:47.629Z,22.35
2023-05-10T07:00:18.026Z,22.45
2023-05-10T07:02:45.768Z,22.58
2023-05-10T07:05:12.716Z,22.73
2023-05-10T07:07:39.586Z,22.85
2023-05-10T07:10:08.183Z,22.72
2023-05-10T07:12:35.336Z,22.82
2023-05-10T07:15:02.259Z,22.89
2023-05-10T07:17:30.844Z,23.03
2023-05-10T07:19:57.859Z,23.37
2023-05-10T07:22:24.849Z,23.85
2023-05-10T07:24:52.895Z,24.26
2023-05-10T07:27:20.052Z,24.63
2023-05-10T07:29:47.002Z,24.99
2023-05-10T07:32:14.395Z,25.24
2023-05-10T07:34:43.189Z,25.47
2023-05-10T07:37:10.329Z,25.72
2023-05-10T07:39:37.426Z,25.98
2023-05-10T07:42:04.916Z,26.23
2023-05-10T07:44:31.960Z,26.43
2023-05-10T07:46:58.970Z,26.57
2023-05-10T07:49:27.011Z,26.79
2023-05-10T07:51:55.554Z,26.76
2023-05-10T07:54:22.581Z,26.70
2023-05-10T07:56:49.600Z,26.67
2023-05-10T07:59:18.719Z,26.83
2023-05-10T08:01:46.561Z,26.98
2023-05-10T08:04:14.076Z,26.86
2023-05-10T08:06:41.413Z,26.59
2023-05-10T08:09:10.119Z,26.33
2023-05-10T08:11:37.335Z,26.18
2023-05-10T08:14:04.439Z,26.29
2023-05-10T08:16:31.540Z,26.41
2023-05-10T08:18:58.848Z,26.56
2023-05-10T08:21:25.836Z,26.83
2023-05-10T08:23:53.104Z,27.18
2023-05-10T08:26:21.341Z,27.39
2023-05-10T08:28:48.789Z,27.34
2023-05-10T08:31:17.020Z,27.22
2023-05-10T08:33:44.796Z,27.05
2023-05-10T08:36:12.218Z,27.16
2023-05-10T08:38:39.296Z,27.35
2023-05-10T08:41:07.248Z,27.53
2023-05-10T08:43:37.390Z,27.88
2023-05-10T08:46:07.893Z,28.40
2023-05-10T08:48:36.030Z,28.79
2023-05-10T08:51:05.105Z,29.08
2023-05-10T08:53:35.736Z,28.95
2023-05-10T08:56:06.791Z,28.92
2023-05-10T08:58:35.355Z,29.02
2023-05-10T09:01:02.629Z,29.08
2023-05-10T09:03:30.978Z,28.90
2023-05-10T09:05:58.377Z,28.91
2023-05-10T09:08:26.782Z,29.08
2023-05-10T09:10:54.379Z,29.29
2023-05-10T09:13:23.543Z,29.73
2023-05-10T09:15:52.629Z,30.11
2023-05-10T09:18:20.094Z,30.66
2023-05-10T09:20:47.195Z,30.85
2023-05-10T09:23:14.167Z,30.74
2023-05-10T09:25:42.714Z,30.45
2023-05-10T09:28:11.346Z,30.29
2023-05-10T09:30:38.620Z,30.13
2023-05-10T09:33:07.772Z,29.84
2023-05-10T09:35:34.696Z,29.56
2023-05-10T09:38:04.342Z,29.57
2023-05-10T09:40:32.526Z,29.47
2023-05-10T09:43:01.771Z,29.47
2023-05-10T09:45:31.139Z,29.32
2023-05-10T09:47:59.537Z,29.12
2023-05-10T09:50:28.681Z,28.87
2023-05-10T09:52:57.774Z,28.51
2023-05-10T09:55:27.649Z,28.17
2023-05-10T09:58:01.702Z,28.03
2023-05-10T10:00:35.400Z,27.69
2023-05-10T10:03:03.436Z,27.51
2023-05-10T10:05:33.030Z,27.32
2023-05-10T10:08:01.967Z,27.16
2023-05-10T10:10:30.383Z,27.16
2023-05-10T10:12:58.291Z,27.07
2023-05-10T10:15:25.622Z,27.20
2023-05-10T10:17:53.998Z,27.39
2023-05-10T10:20:23.268Z,27.56
2023-05-10T10:22:51.851Z,27.70
2023-05-10T10:25:21.229Z,27.90
2023-05-10T10:28:03.073Z,28.06
2023-05-10T10:30:42.496Z,28.25
2023-05-10T10:33:48.503Z,28.20
2023-05-10T10:36:17.088Z,28.09
2023-05-10T10:39:02.242Z,27.83
2023-05-10T10:41:33.027Z,27.42
2023-05-10T10:44:38.328Z,26.95
2023-05-10T10:47:23.310Z,26.49
2023-05-10T10:49:54.645Z,26.08
2023-05-10T10:52:25.302Z,25.79
2023-05-10T10:54:58.856Z,25.59
2023-05-10T10:57:26.214Z,25.37
2023-05-10T11:00:35.278Z,25.17
2023-05-10T11:03:06.392Z,24.94
2023-05-10T11:05:40.466Z,24.62
2023-05-10T11:08:16.840Z,24.46
2023-05-10T11:11:05.194Z,24.45
2023-05-10T11:13:36.059Z,24.29
2023-05-10T11:16:18.947Z,24.33
2023-05-10T11:19:02.154Z,24.24
2023-05-10T11:21:29.757Z,24.04
2023-05-10T11:23:58.607Z,23.98
2023-05-10T11:26:32.331Z,23.91
2023-05-10T11:29:01.042Z,23.82
2023-05-10T11:31:53.214Z,23.66
2023-05-10T11:34:29.497Z,23.63
2023-05-10T11:36:57.619Z,23.56
2023-05-10T11:39:28.798Z,23.53
2023-05-10T11:42:00.713Z,23.58
2023-05-10T11:44:31.051Z,23.53
2023-05-10T11:47:00.285Z,23.57
2023-05-10T11:49:27.509Z,23.47
2023-05-10T11:52:04.579Z,23.46
2023-05-10T11:54:31.630Z,23.28
2023-05-10T11:57:00.887Z,23.22
2023-05-10T11:59:27.689Z,23.27
2023-05-10T12:01:55.246Z,23.27
2023-05-10T12:04:22.988Z,23.33
2023-05-10T12:06:50.064Z,23.40
2023-05-10T12:09:19.254Z,23.16
2023-05-10T12:11:50.614Z,23.23
2023-05-10T12:14:18.905Z,23.31
2023-05-10T12:16:45.975Z,23.47
2023-05-10T12:19:13.271Z,23.68
2023-05-10T12:21:40.451Z,23.78
2023-05-10T12:24:09.073Z,23.97
2023-05-10T12:26:36.924Z,24.02
2023-05-10T12:29:18.036Z,24.14
2023-05-10T12:31:55.247Z,24.24
2023-05-10T12:34:27.054Z,24.32
2023-05-10T12:36:54.541Z,24.40
2023-05-10T12:39:21.487Z,24.45
2023-05-10T12:41:48.630Z,24.60
2023-05-10T12:44:15.919Z,24.72
2023-05-10T12:46:43.072Z,24.91
2023-05-10T12:49:11.701Z,24.87
2023-05-10T12:51:38.680Z,24.70
2023-05-10T12:54:05.917Z,24.66
2023-05-10T12:56:32.905Z,24.63
2023-05-10T12:58:59.788Z,24.60
2023-05-10T13:01:26.876Z,24.60
2023-05-10T13:03:53.774Z,24.36
2023-05-10T13:06:22.233Z,24.14
2023-05-10T13:08:49.298Z,24.07
2023-05-10T13:11:16.665Z,23.78
2023-05-10T13:13:43.894Z,23.60
2023-05-10T13:16:10.846Z,23.63
2023-05-10T13:18:37.814Z,23.61
2023-05-10T13:21:05.164Z,23.61
2023-05-10T13:23:33.660Z,23.51
2023-05-10T13:26:00.541Z,23.66
2023-05-10T13:28:27.495Z,23.71
2023-05-10T13:30:54.796Z,23.70
2023-05-10T13:33:21.812Z,23.75
2023-05-10T13:35:48.668Z,23.85
2023-05-10T13:38:15.870Z,23.98
2023-05-10T13:40:44.109Z,24.05
2023-05-10T13:43:10.899Z,24.07
2023-05-10T13:45:37.945Z,24.15
2023-05-10T13:48:05.686Z,24.22
2023-05-10T13:50:32.698Z,24.18
2023-05-10T13:52:59.526Z,24.32
2023-05-10T13:55:27.975Z,24.43
2023-05-10T13:57:56.496Z,24.59
2023-05-10T14:00:23.689Z,24.55
2023-05-10T14:02:50.571Z,24.63
2023-05-10T14:05:19.320Z,24.72
2023-05-10T14:07:49.112Z,24.91
2023-05-10T14:10:16.088Z,25.10
2023-05-10T14:12:43.125Z,25.24
2023-05-10T14:15:12.377Z,25.30
2023-05-10T14:17:39.531Z,25.41
2023-05-10T14:20:08.646Z,25.45
2023-05-10T14:22:35.829Z,25.48
2023-05-10T14:25:02.737Z,25.59
2023-05-10T14:27:29.828Z,25.75
2023-05-10T14:29:56.938Z,25.95
2023-05-10T14:32:25.549Z,26.09
2023-05-10T14:34:52.647Z,26.23
2023-05-10T14:37:19.491Z,26.44
2023-05-10T14:39:46.474Z,26.67
2023-05-10T14:42:13.448Z,26.79
2023-05-10T14:44:40.307Z,26.77
2023-05-10T14:47:07.800Z,26.79
2023-05-10T14:49:36.735Z,26.94
2023-05-10T14:52:04.225Z,27.18
2023-05-10T14:54:31.169Z,27.43
2023-05-10T14:56:57.996Z,27.35
2023-05-10T14:59:25.316Z,27.27
2023-05-10T15:01:52.773Z,27.15
2023-05-10T15:04:20.191Z,27.11
2023-05-10T15:06:48.802Z,27.02
2023-05-10T15:09:15.974Z,26.74
2023-05-10T15:11:43.363Z,26.61
2023-05-10T15:14:10.256Z,26.46
2023-05-10T15:16:37.240Z,26.26
2023-05-10T15:19:04.210Z,26.28
2023-05-10T15:21:31.187Z,26.36
2023-05-10T15:23:59.370Z,26.39
2023-05-10T15:26:26.343Z,26.43
2023-05-10T15:28:53.361Z,26.50
2023-05-10T15:34:11.789Z,26.65
2023-05-10T15:36:38.957Z,26.70
2023-05-10T15:39:07.133Z,26.83
2023-05-10T15:41:34.283Z,26.69
2023-05-10T15:44:01.282Z,26.65
2023-05-10T15:46:29.337Z,26.54
2023-05-10T15:48:57.698Z,26.56
2023-05-10T15:51:24.628Z,26.57
2023-05-10T15:54:05.950Z,26.56
2023-05-10T15:56:36.284Z,26.57
2023-05-10T15:59:03.421Z,26.64
2023-05-10T16:01:31.330Z,26.63
2023-05-10T16:03:58.456Z,26.69
2023-05-10T16:06:25.297Z,26.70
2023-05-10T16:08:54.106Z,26.80
2023-05-10T16:11:21.651Z,27.04
2023-05-10T16:13:49.956Z,27.31
2023-05-10T16:16:17.084Z,27.11
2023-05-10T16:18:44.314Z,26.87
2023-05-10T16:21:11.611Z,26.65
2023-05-10T16:23:38.517Z,26.59
2023-05-10T16:26:05.416Z,26.50
2023-05-10T16:28:32.359Z,26.54
2023-05-10T16:31:00.863Z,26.49
2023-05-10T16:33:27.921Z,26.35
2023-05-10T16:35:55.067Z,26.08
2023-05-10T16:38:21.890Z,25.78
2023-05-10T16:40:49.177Z,25.64
2023-05-10T16:43:16.130Z,25.68
2023-05-10T16:45:42.966Z,25.68
2023-05-10T16:48:11.309Z,25.47
2023-05-10T16:50:38.757Z,25.49
2023-05-10T16:53:05.828Z,25.42
2023-05-10T16:55:32.974Z,25.37
2023-05-10T16:58:00.577Z,25.27
2023-05-10T17:00:27.758Z,25.24
2023-05-10T17:02:55.060Z,25.18
2023-05-10T17:05:23.705Z,25.18
2023-05-10T17:07:50.708Z,25.10
2023-05-10T17:10:18.082Z,25.10
2023-05-10T17:12:59.625Z,25.02
2023-05-10T17:19:57.078Z,25.13
2023-05-10T17:22:25.464Z,25.04
2023-05-10T17:24:56.942Z,25.03
2023-05-10T17:27:56.413Z,24.87
2023-05-10T17:30:23.503Z,24.80
2023-05-10T17:32:50.372Z,24.70
2023-05-10T17:35:17.934Z,24.49
2023-05-10T17:37:46.434Z,24.49
2023-05-10T17:40:13.519Z,24.24
2023-05-10T17:42:40.771Z,24.21
2023-05-10T17:45:09.347Z,24.18
2023-05-10T17:47:36.805Z,24.18
2023-05-10T17:50:05.342Z,24.07
2023-05-10T17:52:33.659Z,24.01
2023-05-10T17:55:01.999Z,23.93
2023-05-10T17:57:29.136Z,23.84
2023-05-10T17:59:55.990Z,23.82
2023-05-10T18:02:23.072Z,23.75
2023-05-10T18:04:50.162Z,23.75
2023-05-10T18:07:17.200Z,23.71
2023-05-10T18:09:44.281Z,23.63
2023-05-10T18:12:12.852Z,23.47
2023-05-10T18:14:41.441Z,23.39
2023-05-10T18:17:09.126Z,23.31
2023-05-10T18:19:36.267Z,23.28
2023-05-10T18:22:03.245Z,23.31
2023-05-10T18:24:38.890Z,23.30
2023-05-10T18:27:07.007Z,23.22
2023-05-10T18:29:35.330Z,23.12
2023-05-10T18:32:02.250Z,23.06
2023-05-10T18:34:29.270Z,22.96
2023-05-10T18:36:56.460Z,22.91
2023-05-10T18:39:23.944Z,22.89
2023-05-10T18:41:50.918Z,22.91
2023-05-10T18:44:18.062Z,22.91
2023-05-10T18:46:46.657Z,22.91
2023-05-10T18:49:13.620Z,22.85
2023-05-10T18:51:40.641Z,22.86
2023-05-10T18:54:07.722Z,22.77
2023-05-10T18:56:36.551Z,22.82
2023-05-10T18:59:03.503Z,22.81
2023-05-10T19:01:30.365Z,22.82
2023-05-10T19:03:58.812Z,22.81
2023-05-10T19:06:26.023Z,22.76
2023-05-10T19:08:52.893Z,22.73
2023-05-10T19:11:19.900Z,22.71
2023-05-10T19:13:47.797Z,22.64
2023-05-10T19:16:20.227Z,22.62
2023-05-10T19:18:49.063Z,22.65
2023-05-10T19:21:17.342Z,22.56
2023-05-10T19:23:44.795Z,22.42
2023-05-10T19:26:11.878Z,22.35
2023-05-10T19:28:39.229Z,22.25
2023-05-10T19:31:07.124Z,22.14
2023-05-10T19:33:34.441Z,22.00
2023-05-10T19:36:01.584Z,22.00
2023-05-10T19:38:30.037Z,21.94
2023-05-10T19:40:57.045Z,22.00
2023-05-10T19:43:24.224Z,21.98
2023-05-10T19:45:51.296Z,22.00
2023-05-10T19:48:18.567Z,22.00
2023-05-10T19:50:45.559Z,22.05
2023-05-10T19:53:12.589Z,22.08
2023-05-10T19:55:40.899Z,22.08
2023-05-10T19:58:07.964Z,22.17
2023-05-10T20:00:35.465Z,22.20
2023-05-10T20:03:03.239Z,22.17
2023-05-10T20:05:30.196Z,22.15
2023-05-10T20:07:57.227Z,22.14
2023-05-10T20:10:25.247Z,22.07
2023-05-10T20:12:55.260Z,21.96
2023-05-10T20:15:23.594Z,21.92
2023-05-10T20:17:51.961Z,21.84
2023-05-10T20:20:20.503Z,21.66
2023-05-10T20:22:48.729Z,21.63
2023-05-10T20:25:16.923Z,21.60
2023-05-10T20:27:44.277Z,21.57
2023-05-10T20:30:37.395Z,21.54
2023-05-10T20:33:04.948Z,21.54
2023-05-10T20:35:32.047Z,21.54
2023-05-10T20:37:58.876Z,21.42
2023-05-10T20:40:25.973Z,21.38
2023-05-10T20:42:53.046Z,21.36
2023-05-10T20:45:19.921Z,21.32
2023-05-10T20:47:48.369Z,21.32
2023-05-10T20:50:15.501Z,21.31
2023-05-10T20:52:42.858Z,21.35
2023-05-10T20:55:10.262Z,21.43
2023-05-10T20:57:37.308Z,21.47
2023-05-10T21:00:05.391Z,21.56
2023-05-10T21:02:32.423Z,21.66
2023-05-10T21:05:01.117Z,21.72
2023-05-10T21:07:28.425Z,21.73
2023-05-10T21:09:55.300Z,21.73
2023-05-10T21:12:22.486Z,21.74
2023-05-10T21:14:49.284Z,21.77
2023-05-10T21:17:18.785Z,21.73
2023-05-10T21:19:46.772Z,21.66
2023-05-10T21:22:15.190Z,21.57
2023-05-10T21:24:42.159Z,21.49
2023-05-10T21:27:09.114Z,21.38
2023-05-10T21:29:36.309Z,21.29
2023-05-10T21:32:03.395Z,21.28
2023-05-10T21:34:30.717Z,21.29
2023-05-10T21:36:57.858Z,21.32
2023-05-10T21:39:26.073Z,21.22
2023-05-10T21:41:52.954Z,21.18
2023-05-10T21:44:20.021Z,21.15
2023-05-10T21:46:46.956Z,21.15
2023-05-10T21:49:14.124Z,21.16
2023-05-10T21:51:41.294Z,21.21
2023-05-10T21:54:08.474Z,21.19
2023-05-10T21:56:37.346Z,21.23
2023-05-10T21:59:04.455Z,21.18
2023-05-10T22:01:31.621Z,21.16
2023-05-10T22:03:58.685Z,21.16
2023-05-10T22:06:26.151Z,21.22
2023-05-10T22:08:53.105Z,21.28
2023-05-10T22:11:20.127Z,21.28
2023-05-10T22:13:48.595Z,21.32
2023-05-10T22:16:15.626Z,21.29
2023-05-10T22:18:43.555Z,21.35
2023-05-10T22:21:10.651Z,21.38
2023-05-10T22:23:40.187Z,21.42
2023-05-10T22:26:07.415Z,21.42
2023-05-10T22:28:34.259Z,21.35
2023-05-10T22:31:02.822Z,21.33
2023-05-10T22:33:30.072Z,21.29
2023-05-10T22:35:58.260Z,21.29
2023-05-10T22:38:25.195Z,21.26
2023-05-10T22:40:52.191Z,21.26
2023-05-10T22:43:18.998Z,21.31
2023-05-10T22:45:45.976Z,21.36
2023-05-10T22:48:15.739Z,21.47
2023-05-10T22:50:42.783Z,21.56
2023-05-10T22:53:10.327Z,21.64
2023-05-10T22:55:37.309Z,21.74
2023-05-10T22:58:04.350Z,21.82
2023-05-10T23:00:31.321Z,21.87
2023-05-10T23:02:58.928Z,21.89
2023-05-10T23:05:27.168Z,21.87
2023-05-10T23:07:54.067Z,21.84
2023-05-10T23:10:21.051Z,21.82
2023-05-10T23:12:48.209Z,21.83
2023-05-10T23:15:15.375Z,21.82
2023-05-10T23:17:42.473Z,21.82
2023-05-10T23:20:11.333Z,21.87
2023-05-10T23:22:39.866Z,21.89
2023-05-10T23:25:08.496Z,21.96
2023-05-10T23:27:35.541Z,21.96
2023-05-10T23:30:28.047Z,21.89
2023-05-10T23:32:55.111Z,21.90
2023-05-10T23:35:22.247Z,21.89
2023-05-10T23:37:50.475Z,21.87
2023-05-10T23:40:17.792Z,21.82
2023-05-10T23:42:45.276Z,21.77
2023-05-10T23:45:12.252Z,21.70
2023-05-10T23:47:39.179Z,21.67
2023-05-10T23:50:07.796Z,21.66
2023-05-10T23:52:34.952Z,21.57
2023-05-10T23:55:03.870Z,21.45
2023-05-10T23:57:30.772Z,21.32
2023-05-10T23:59:58.000Z,21.18
